createdAt,value
2019-03-23T00:01:04.772Z,5.97
2019-03-23T00:03:34.568Z,5.50
2019-03-23T00:06:04.126Z,6.53
2019-03-23T00:08:33.692Z,5.63
2019-03-23T00:11:03.261Z,6.47
2019-03-23T00:13:32.842Z,5.80
2019-03-23T00:16:02.448Z,5.77
2019-03-23T00:18:31.941Z,6.90
2019-03-23T00:21:01.517Z,6.00
2019-03-23T00:23:31.013Z,5.50
2019-03-23T00:26:00.616Z,6.37
2019-03-23T00:28:30.187Z,6.23
2019-03-23T00:30:59.755Z,5.87
2019-03-23T00:33:29.445Z,6.63
2019-03-23T00:35:59.014Z,5.77
2019-03-23T00:38:28.660Z,5.97
2019-03-23T00:40:58.247Z,6.33
2019-03-23T00:43:27.733Z,7.00
2019-03-23T00:45:57.367Z,7.00
2019-03-23T00:48:26.993Z,7.73
2019-03-23T00:50:56.462Z,6.70
2019-03-23T00:53:25.934Z,7.40
2019-03-23T00:55:55.446Z,7.30
2019-03-23T00:58:25.062Z,6.57
2019-03-23T01:00:54.500Z,7.63
2019-03-23T01:03:24.018Z,7.33
2019-03-23T01:05:53.630Z,6.60
2019-03-23T01:08:23.261Z,7.33
2019-03-23T01:10:52.836Z,6.27
2019-03-23T01:13:22.340Z,6.50
2019-03-23T01:15:51.893Z,6.23
2019-03-23T01:18:21.384Z,6.70
2019-03-23T01:20:50.905Z,6.83
2019-03-23T01:23:20.468Z,6.63
2019-03-23T01:25:50.005Z,6.27
2019-03-23T01:28:19.554Z,6.67
2019-03-23T01:30:49.063Z,6.60
2019-03-23T01:33:18.848Z,6.57
2019-03-23T01:35:48.459Z,6.73
2019-03-23T01:38:18.071Z,6.60
2019-03-23T01:40:47.662Z,6.33
2019-03-23T01:43:18.590Z,6.93
2019-03-23T01:45:48.184Z,6.93
2019-03-23T01:48:17.815Z,6.17
2019-03-23T01:50:47.524Z,7.27
2019-03-23T01:53:18.340Z,6.80
2019-03-23T01:55:47.987Z,6.60
2019-03-23T01:58:17.640Z,6.03
2019-03-23T02:00:47.312Z,7.57
2019-03-23T02:03:18.831Z,7.70
2019-03-23T02:05:48.784Z,8.07
2019-03-23T02:08:18.455Z,7.60
2019-03-23T02:10:48.132Z,8.23
2019-03-23T02:13:18.306Z,8.10
2019-03-23T02:15:47.911Z,8.07
2019-03-23T02:18:17.582Z,7.83
2019-03-23T02:20:47.281Z,7.23
2019-03-23T02:23:16.988Z,9.10
2019-03-23T02:25:46.600Z,9.93
2019-03-23T02:28:16.248Z,9.47
2019-03-23T02:30:45.895Z,8.83
2019-03-23T02:33:15.514Z,11.83
2019-03-23T02:35:45.152Z,10.97
2019-03-23T02:38:14.871Z,12.10
2019-03-23T02:40:44.577Z,11.20
2019-03-23T02:43:14.247Z,12.00
2019-03-23T02:45:43.918Z,12.10
2019-03-23T02:48:13.627Z,11.57
2019-03-23T02:50:43.257Z,12.50
2019-03-23T02:53:13.021Z,13.87
2019-03-23T02:55:42.658Z,16.90
2019-03-23T02:58:12.357Z,16.93
2019-03-23T03:00:42.083Z,23.67
2019-03-23T03:03:11.819Z,26.07
2019-03-23T03:05:41.532Z,32.00
2019-03-23T03:08:11.200Z,37.10
2019-03-23T03:10:41.134Z,35.77
2019-03-23T03:13:10.757Z,36.57
2019-03-23T03:15:40.430Z,37.10
2019-03-23T03:18:10.083Z,38.27
2019-03-23T03:20:39.856Z,39.07
2019-03-23T03:23:09.460Z,40.67
2019-03-23T03:25:39.117Z,37.00
2019-03-23T03:28:08.771Z,38.50
2019-03-23T03:30:38.444Z,41.67
2019-03-23T03:33:08.047Z,47.27
2019-03-23T03:35:37.684Z,53.57
2019-03-23T03:38:07.294Z,51.87
2019-03-23T03:40:36.889Z,56.70
2019-03-23T03:43:06.475Z,59.83
2019-03-23T03:45:36.156Z,63.03
2019-03-23T03:48:05.795Z,61.73
2019-03-23T03:50:35.467Z,58.47
2019-03-23T03:53:05.079Z,59.37
2019-03-23T03:55:34.732Z,56.93
2019-03-23T03:58:04.351Z,59.40
2019-03-23T04:00:34.005Z,61.53
2019-03-23T04:03:03.603Z,66.50
2019-03-23T04:05:33.299Z,66.97
2019-03-23T04:08:11.195Z,65.77
2019-03-23T04:10:34.276Z,73.57
2019-03-23T04:13:03.918Z,75.40
2019-03-23T04:15:33.621Z,76.90
2019-03-23T04:18:03.377Z,75.67
2019-03-23T04:20:33.036Z,75.50
2019-03-23T04:23:02.658Z,76.10
2019-03-23T04:25:32.323Z,76.37
2019-03-23T04:28:01.965Z,72.20
2019-03-23T04:30:31.625Z,75.43
2019-03-23T04:33:01.263Z,73.07
2019-03-23T04:35:30.885Z,70.03
2019-03-23T04:38:00.538Z,68.87
2019-03-23T04:40:30.245Z,74.40
2019-03-23T04:42:59.909Z,75.50
2019-03-23T04:45:29.595Z,69.50
2019-03-23T04:47:59.204Z,68.37
2019-03-23T04:50:28.855Z,67.33
2019-03-23T04:52:58.498Z,70.37
2019-03-23T04:55:28.397Z,71.50
2019-03-23T04:57:58.037Z,67.80
2019-03-23T05:00:27.749Z,63.53
2019-03-23T05:02:57.383Z,66.10
2019-03-23T05:05:27.132Z,67.67
2019-03-23T05:07:56.775Z,68.27
2019-03-23T05:10:26.562Z,67.90
2019-03-23T05:12:56.237Z,65.43
2019-03-23T05:15:26.014Z,68.43
2019-03-23T05:17:55.664Z,67.53
2019-03-23T05:20:29.868Z,68.07
2019-03-23T05:22:59.703Z,68.40
2019-03-23T05:25:29.470Z,66.03
2019-03-23T05:27:59.234Z,69.97
2019-03-23T05:30:29.142Z,71.30
2019-03-23T05:32:58.839Z,69.17
2019-03-23T05:35:28.567Z,65.93
2019-03-23T05:37:58.187Z,64.80
2019-03-23T05:40:27.939Z,68.03
2019-03-23T05:42:57.623Z,63.23
2019-03-23T05:45:27.291Z,64.90
2019-03-23T05:47:56.913Z,64.40
2019-03-23T05:50:26.660Z,65.27
2019-03-23T05:52:56.361Z,63.53
2019-03-23T05:55:26.038Z,64.87
2019-03-23T05:57:55.688Z,61.53
2019-03-23T06:00:25.356Z,60.60
2019-03-23T06:02:55.037Z,58.23
2019-03-23T06:05:24.855Z,59.10
2019-03-23T06:07:54.516Z,55.10
2019-03-23T06:10:24.114Z,53.17
2019-03-23T06:12:53.783Z,54.43
2019-03-23T06:15:23.397Z,53.03
2019-03-23T06:17:53.151Z,56.03
2019-03-23T06:20:22.774Z,55.10
2019-03-23T06:22:52.451Z,52.67
2019-03-23T06:25:22.150Z,53.60
2019-03-23T06:27:51.774Z,52.87
2019-03-23T06:30:21.391Z,53.00
2019-03-23T06:32:51.052Z,53.73
2019-03-23T06:35:20.646Z,52.13
2019-03-23T06:37:50.308Z,54.90
2019-03-23T06:40:19.908Z,51.00
2019-03-23T06:42:59.355Z,52.73
2019-03-23T06:45:20.989Z,51.73
2019-03-23T06:47:50.668Z,52.97
2019-03-23T06:50:20.341Z,51.10
2019-03-23T06:52:49.979Z,50.97
2019-03-23T06:55:19.544Z,52.40
2019-03-23T06:57:49.317Z,51.67
2019-03-23T07:00:18.984Z,51.70
2019-03-23T07:02:48.631Z,51.30
2019-03-23T07:05:18.198Z,51.23
2019-03-23T07:07:47.893Z,53.50
2019-03-23T07:10:17.477Z,53.87
2019-03-23T07:12:47.196Z,54.07
2019-03-23T07:15:20.397Z,53.33
2019-03-23T07:17:48.294Z,52.23
2019-03-23T07:20:17.932Z,55.67
2019-03-23T07:22:47.577Z,53.73
2019-03-23T07:25:17.207Z,52.23
2019-03-23T07:27:46.932Z,54.57
2019-03-23T07:30:16.685Z,54.87
2019-03-23T07:32:46.328Z,53.90
2019-03-23T07:35:16.058Z,53.90
2019-03-23T07:37:45.708Z,53.13
2019-03-23T07:40:15.322Z,55.10
2019-03-23T07:42:45.270Z,54.27
2019-03-23T07:45:14.894Z,54.93
2019-03-23T07:47:44.525Z,53.57
2019-03-23T07:50:14.363Z,55.57
2019-03-23T07:52:44.005Z,54.40
2019-03-23T07:55:16.656Z,53.60
2019-03-23T07:57:46.441Z,54.83
2019-03-23T08:00:17.867Z,56.87
2019-03-23T08:02:47.520Z,52.90
2019-03-23T08:05:17.204Z,51.33
2019-03-23T08:07:46.840Z,54.53
2019-03-23T08:10:30.262Z,52.83
2019-03-23T08:12:59.903Z,51.63
2019-03-23T08:15:29.660Z,52.47
2019-03-23T08:17:59.311Z,53.87
2019-03-23T08:20:28.920Z,56.10
2019-03-23T08:22:58.513Z,53.20
2019-03-23T08:25:28.276Z,53.10
2019-03-23T08:27:58.187Z,57.87
2019-03-23T08:30:27.820Z,55.70
2019-03-23T08:32:57.451Z,55.90
2019-03-23T08:35:27.235Z,56.87
2019-03-23T08:37:56.907Z,57.30
2019-03-23T08:40:26.559Z,55.93
2019-03-23T08:42:56.532Z,57.87
2019-03-23T08:45:26.205Z,56.03
2019-03-23T08:47:55.928Z,53.77
2019-03-23T08:50:25.622Z,55.20
2019-03-23T08:52:55.365Z,53.97
2019-03-23T08:55:25.117Z,51.73
2019-03-23T08:57:54.817Z,48.77
2019-03-23T09:00:24.484Z,48.23
2019-03-23T09:02:54.188Z,51.60
2019-03-23T09:05:24.001Z,48.77
2019-03-23T09:07:53.710Z,51.93
2019-03-23T09:10:23.421Z,50.67
2019-03-23T09:12:53.304Z,49.63
2019-03-23T09:15:23.074Z,52.27
2019-03-23T09:17:52.718Z,51.93
2019-03-23T09:20:22.419Z,48.53
2019-03-23T09:22:52.821Z,51.23
2019-03-23T09:25:22.922Z,51.40
2019-03-23T09:27:52.685Z,51.43
2019-03-23T09:30:22.401Z,50.33
2019-03-23T09:32:52.050Z,49.40
2019-03-23T09:35:21.746Z,50.00
2019-03-23T09:37:51.416Z,48.87
2019-03-23T09:40:21.110Z,50.93
2019-03-23T09:42:50.900Z,51.87
2019-03-23T09:45:20.658Z,47.53
2019-03-23T09:47:50.282Z,51.43
2019-03-23T09:50:20.041Z,50.47
2019-03-23T09:52:49.884Z,50.77
2019-03-23T09:55:19.539Z,49.90
2019-03-23T09:57:49.200Z,49.07
2019-03-23T10:00:18.883Z,46.00
2019-03-23T10:02:48.489Z,47.03
2019-03-23T10:05:19.327Z,45.80
2019-03-23T10:07:49.096Z,46.50
2019-03-23T10:10:22.079Z,48.17
2019-03-23T10:12:53.091Z,46.43
2019-03-23T10:15:22.915Z,47.17
2019-03-23T10:17:52.682Z,48.57
2019-03-23T10:20:22.375Z,44.83
2019-03-23T10:22:52.077Z,46.30
2019-03-23T10:25:21.917Z,47.07
2019-03-23T10:27:51.670Z,46.03
2019-03-23T10:30:21.379Z,46.73
2019-03-23T10:32:51.147Z,46.17
2019-03-23T10:35:20.952Z,46.80
2019-03-23T10:37:51.074Z,46.37
2019-03-23T10:40:20.770Z,46.57
2019-03-23T10:42:50.622Z,45.13
2019-03-23T10:45:20.362Z,48.47
2019-03-23T10:47:50.350Z,49.13
2019-03-23T10:50:20.100Z,47.27
2019-03-23T10:52:49.912Z,49.03
2019-03-23T10:55:19.662Z,48.00
2019-03-23T10:57:49.475Z,48.07
2019-03-23T11:00:19.298Z,50.87
2019-03-23T11:02:49.087Z,52.23
2019-03-23T11:05:18.826Z,49.97
2019-03-23T11:07:50.747Z,49.00
2019-03-23T11:10:20.457Z,52.20
2019-03-23T11:12:50.110Z,46.83
2019-03-23T11:15:20.172Z,49.47
2019-03-23T11:17:49.906Z,46.27
2019-03-23T11:20:20.281Z,46.93
2019-03-23T11:22:50.124Z,46.97
2019-03-23T11:25:19.926Z,48.03
2019-03-23T11:27:49.736Z,46.43
2019-03-23T11:30:19.487Z,48.20
2019-03-23T11:32:49.257Z,47.80
2019-03-23T11:35:19.064Z,48.43
2019-03-23T11:37:49.222Z,50.27
2019-03-23T11:40:19.345Z,47.77
2019-03-23T11:42:50.404Z,48.03
2019-03-23T11:45:20.243Z,49.03
2019-03-23T11:47:50.054Z,48.27
2019-03-23T11:50:19.723Z,47.33
2019-03-23T11:52:49.476Z,45.00
2019-03-23T11:55:19.326Z,45.03
2019-03-23T11:57:49.162Z,45.43
2019-03-23T12:00:18.936Z,44.77
2019-03-23T12:02:48.602Z,43.67
2019-03-23T12:05:18.458Z,46.47
2019-03-23T12:07:48.279Z,44.27
2019-03-23T12:10:17.921Z,42.17
2019-03-23T12:12:47.615Z,44.57
2019-03-23T12:15:17.376Z,44.37
2019-03-23T12:17:47.160Z,42.47
2019-03-23T12:20:16.900Z,41.17
2019-03-23T12:22:46.547Z,40.03
2019-03-23T12:25:16.265Z,40.13
2019-03-23T12:27:45.901Z,39.40
2019-03-23T12:30:16.158Z,40.67
2019-03-23T12:32:45.749Z,39.33
2019-03-23T12:35:15.497Z,39.43
2019-03-23T12:37:45.171Z,39.80
2019-03-23T12:40:15.733Z,37.67
2019-03-23T12:42:45.525Z,39.03
2019-03-23T12:45:15.263Z,35.67
2019-03-23T12:47:45.113Z,38.77
2019-03-23T12:50:14.943Z,37.83
2019-03-23T12:52:44.856Z,39.20
2019-03-23T12:55:14.525Z,38.33
2019-03-23T12:57:44.179Z,37.87
2019-03-23T13:00:14.151Z,36.47
2019-03-23T13:02:43.823Z,35.77
2019-03-23T13:05:13.585Z,36.47
2019-03-23T13:07:43.241Z,37.50
2019-03-23T13:10:13.139Z,35.70
2019-03-23T13:12:42.952Z,33.33
2019-03-23T13:15:12.665Z,35.07
2019-03-23T13:17:42.328Z,34.70
2019-03-23T13:20:12.677Z,35.50
2019-03-23T13:22:42.921Z,34.93
2019-03-23T13:25:12.916Z,37.27
2019-03-23T13:27:42.999Z,34.90
2019-03-23T13:30:13.326Z,34.57
2019-03-23T13:32:42.964Z,34.23
2019-03-23T13:35:12.650Z,35.03
2019-03-23T13:37:42.258Z,32.57
2019-03-23T13:40:12.026Z,33.50
2019-03-23T13:42:41.735Z,34.47
2019-03-23T13:45:11.384Z,37.13
2019-03-23T13:47:42.775Z,33.73
2019-03-23T13:50:12.729Z,34.90
2019-03-23T13:52:49.198Z,34.73
2019-03-23T13:55:32.560Z,34.13
2019-03-23T13:58:12.326Z,34.37
2019-03-23T14:00:42.296Z,35.00
2019-03-23T14:03:11.967Z,34.53
2019-03-23T14:05:41.644Z,35.17
2019-03-23T14:08:11.270Z,34.37
2019-03-23T14:10:40.930Z,34.53
2019-03-23T14:13:10.685Z,35.13
2019-03-23T14:15:40.490Z,35.17
2019-03-23T14:18:10.185Z,35.40
2019-03-23T14:20:39.934Z,33.73
2019-03-23T14:23:09.889Z,33.17
2019-03-23T14:25:39.695Z,30.93
2019-03-23T14:28:09.544Z,32.57
2019-03-23T14:30:39.219Z,32.73
2019-03-23T14:33:08.984Z,33.37
2019-03-23T14:35:38.671Z,31.90
2019-03-23T14:38:08.307Z,30.30
2019-03-23T14:40:37.905Z,30.60
2019-03-23T14:43:07.578Z,29.43
2019-03-23T14:45:37.275Z,29.83
2019-03-23T14:48:06.894Z,29.73
2019-03-23T14:50:36.541Z,28.93
2019-03-23T14:53:07.681Z,28.33
2019-03-23T14:55:37.582Z,28.07
2019-03-23T14:58:07.294Z,27.77
2019-03-23T15:00:36.997Z,27.33
2019-03-23T15:03:06.630Z,30.43
2019-03-23T15:05:37.308Z,29.13
2019-03-23T15:08:07.407Z,26.30
2019-03-23T15:10:37.039Z,27.27
2019-03-23T15:13:06.749Z,28.30
2019-03-23T15:15:36.424Z,27.00
2019-03-23T15:18:06.193Z,29.37
2019-03-23T15:20:35.924Z,29.80
2019-03-23T15:23:05.563Z,28.47
2019-03-23T15:25:35.255Z,28.63
2019-03-23T15:28:04.954Z,29.03
2019-03-23T15:30:34.552Z,29.97
2019-03-23T15:33:04.264Z,29.37
2019-03-23T15:35:33.862Z,29.20
2019-03-23T15:38:03.580Z,31.03
2019-03-23T15:40:33.344Z,29.63
2019-03-23T15:43:03.165Z,30.23
2019-03-23T15:45:32.862Z,30.77
2019-03-23T15:48:02.554Z,32.70
2019-03-23T15:50:32.295Z,31.53
2019-03-23T15:53:02.000Z,31.00
2019-03-23T15:55:31.622Z,30.57
2019-03-23T15:58:02.384Z,30.50
2019-03-23T16:00:32.083Z,31.27
2019-03-23T16:03:02.071Z,30.23
2019-03-23T16:05:31.686Z,30.97
2019-03-23T16:08:01.357Z,31.27
2019-03-23T16:10:31.016Z,31.30
2019-03-23T16:13:00.799Z,30.90
2019-03-23T16:15:30.454Z,30.37
2019-03-23T16:18:01.668Z,31.33
2019-03-23T16:20:31.407Z,31.23
2019-03-23T16:23:01.005Z,29.60
2019-03-23T16:25:30.646Z,29.87
2019-03-23T16:28:00.267Z,32.73
2019-03-23T16:30:33.425Z,32.20
2019-03-23T16:33:03.061Z,30.53
2019-03-23T16:35:32.784Z,31.83
2019-03-23T16:38:02.417Z,30.53
2019-03-23T16:40:32.139Z,31.77
2019-03-23T16:43:01.922Z,31.77
2019-03-23T16:45:31.586Z,33.77
2019-03-23T16:48:01.437Z,33.43
2019-03-23T16:50:31.174Z,29.23
2019-03-23T16:53:00.797Z,33.47
2019-03-23T16:55:30.434Z,32.53
2019-03-23T16:58:00.141Z,33.77
2019-03-23T17:00:39.111Z,34.43
2019-03-23T17:03:08.783Z,34.43
2019-03-23T17:05:38.364Z,33.30
2019-03-23T17:08:08.104Z,34.13
2019-03-23T17:10:37.744Z,33.40
2019-03-23T17:13:07.537Z,34.50
2019-03-23T17:15:37.112Z,34.23
2019-03-23T17:18:06.818Z,34.77
2019-03-23T17:20:36.467Z,33.27
2019-03-23T17:23:06.119Z,34.83
2019-03-23T17:25:37.616Z,32.47
2019-03-23T17:28:07.209Z,32.60
2019-03-23T17:30:36.846Z,34.40
2019-03-23T17:33:08.871Z,35.17
2019-03-23T17:35:37.993Z,35.10
2019-03-23T17:38:07.666Z,35.77
2019-03-23T17:40:37.435Z,34.37
2019-03-23T17:43:07.406Z,35.03
2019-03-23T17:45:37.188Z,33.87
2019-03-23T17:48:06.853Z,33.47
2019-03-23T17:50:36.518Z,35.63
2019-03-23T17:53:06.268Z,35.50
2019-03-23T17:55:35.893Z,33.63
2019-03-23T17:58:05.770Z,32.83
2019-03-23T18:00:35.382Z,34.33
2019-03-23T18:03:05.038Z,35.27
2019-03-23T18:05:37.166Z,33.83
2019-03-23T18:08:06.807Z,35.03
2019-03-23T18:10:36.758Z,34.77
2019-03-23T18:13:16.124Z,36.73
2019-03-23T18:15:40.893Z,35.17
2019-03-23T18:18:10.521Z,36.17
2019-03-23T18:20:40.137Z,35.53
2019-03-23T18:23:09.798Z,35.67
2019-03-23T18:25:39.443Z,35.83
2019-03-23T18:28:09.115Z,35.97
2019-03-23T18:30:40.569Z,35.73
2019-03-23T18:33:10.210Z,37.67
2019-03-23T18:35:39.846Z,37.40
2019-03-23T18:38:09.739Z,35.17
2019-03-23T18:40:39.362Z,36.93
2019-03-23T18:43:10.565Z,36.70
2019-03-23T18:45:43.002Z,35.47
2019-03-23T18:48:12.627Z,36.43
2019-03-23T18:50:42.849Z,38.33
2019-03-23T18:53:12.682Z,34.97
2019-03-23T18:55:42.330Z,38.03
2019-03-23T18:58:11.935Z,38.37
2019-03-23T19:00:42.809Z,36.83
2019-03-23T19:03:12.574Z,35.50
2019-03-23T19:05:42.295Z,39.43
2019-03-23T19:08:12.165Z,37.13
2019-03-23T19:10:41.859Z,38.57
2019-03-23T19:13:11.488Z,38.87
2019-03-23T19:15:41.130Z,37.67
2019-03-23T19:18:10.788Z,37.40
2019-03-23T19:20:40.377Z,37.77
2019-03-23T19:23:10.456Z,37.67
2019-03-23T19:25:40.049Z,37.83
2019-03-23T19:28:09.980Z,37.93
2019-03-23T19:30:39.591Z,36.43
2019-03-23T19:33:09.318Z,38.27
2019-03-23T19:35:38.949Z,39.00
2019-03-23T19:38:08.634Z,38.57
2019-03-23T19:40:38.214Z,40.50
2019-03-23T19:43:07.971Z,40.63
2019-03-23T19:45:37.705Z,38.97
2019-03-23T19:48:07.462Z,41.20
2019-03-23T19:50:37.307Z,40.37
2019-03-23T19:53:06.959Z,39.67
2019-03-23T19:55:36.734Z,40.00
2019-03-23T19:58:06.467Z,40.00
2019-03-23T20:00:36.233Z,41.23
2019-03-23T20:03:06.076Z,41.10
2019-03-23T20:05:35.844Z,41.17
2019-03-23T20:08:05.484Z,40.70
2019-03-23T20:10:35.241Z,41.13
2019-03-23T20:13:05.072Z,41.10
2019-03-23T20:15:34.724Z,40.57
2019-03-23T20:18:04.454Z,42.67
2019-03-23T20:20:34.140Z,40.30
2019-03-23T20:23:03.797Z,38.63
2019-03-23T20:25:33.509Z,37.60
2019-03-23T20:28:03.199Z,34.87
2019-03-23T20:30:32.832Z,31.63
2019-03-23T20:33:03.880Z,30.93
2019-03-23T20:35:33.576Z,29.17
2019-03-23T20:38:03.247Z,27.40
2019-03-23T20:40:32.929Z,24.30
2019-03-23T20:43:05.524Z,24.73
2019-03-23T20:45:35.147Z,23.13
2019-03-23T20:48:04.869Z,22.97
2019-03-23T20:50:34.518Z,19.37
2019-03-23T20:53:04.271Z,22.67
2019-03-23T20:55:33.906Z,22.47
2019-03-23T20:58:04.601Z,20.37
2019-03-23T21:00:34.266Z,22.57
2019-03-23T21:03:04.627Z,21.77
2019-03-23T21:05:34.624Z,21.37
2019-03-23T21:08:04.560Z,20.70
2019-03-23T21:10:34.523Z,21.13
2019-03-23T21:13:04.715Z,21.23
2019-03-23T21:15:34.297Z,20.93
2019-03-23T21:18:03.949Z,20.20
2019-03-23T21:20:33.661Z,21.77
2019-03-23T21:23:04.432Z,21.33
2019-03-23T21:25:34.054Z,20.83
2019-03-23T21:28:03.733Z,21.47
2019-03-23T21:30:33.429Z,20.53
2019-03-23T21:33:03.154Z,21.47
2019-03-23T21:35:32.904Z,21.37
2019-03-23T21:38:02.663Z,21.47
2019-03-23T21:40:34.863Z,22.30
2019-03-23T21:43:06.182Z,22.27
2019-03-23T21:45:35.875Z,20.37
2019-03-23T21:48:05.544Z,22.67
2019-03-23T21:50:35.153Z,23.27
2019-03-23T21:53:06.705Z,22.50
2019-03-23T21:55:36.550Z,22.77
2019-03-23T21:58:06.242Z,23.47
2019-03-23T22:00:36.065Z,23.03
2019-03-23T22:03:05.850Z,22.97
2019-03-23T22:05:36.596Z,21.80
2019-03-23T22:08:06.811Z,22.53
2019-03-23T22:10:36.433Z,23.60
2019-03-23T22:13:06.860Z,22.57
2019-03-23T22:15:36.588Z,20.37
2019-03-23T22:18:06.203Z,21.80
2019-03-23T22:20:35.802Z,20.53
2019-03-23T22:23:06.374Z,19.93
2019-03-23T22:25:35.964Z,22.37
2019-03-23T22:28:05.630Z,22.23
2019-03-23T22:30:35.261Z,21.27
2019-03-23T22:33:05.071Z,22.73
2019-03-23T22:35:34.705Z,20.60
2019-03-23T22:38:04.402Z,21.93
2019-03-23T22:40:34.161Z,20.70
2019-03-23T22:43:03.820Z,19.60
2019-03-23T22:45:35.734Z,19.87
2019-03-23T22:48:04.909Z,18.70
2019-03-23T22:50:34.556Z,18.33
2019-03-23T22:53:05.142Z,17.30
2019-03-23T22:55:35.051Z,18.10
2019-03-23T22:58:04.748Z,15.83
2019-03-23T23:00:47.858Z,16.27
2019-03-23T23:03:17.500Z,14.87
2019-03-23T23:05:47.092Z,15.00
2019-03-23T23:08:16.667Z,14.80
2019-03-23T23:10:46.245Z,15.27
2019-03-23T23:13:15.855Z,13.50
2019-03-23T23:15:45.466Z,13.93
2019-03-23T23:18:15.148Z,14.10
2019-03-23T23:20:44.821Z,15.30
2019-03-23T23:23:14.425Z,14.07
2019-03-23T23:25:45.387Z,13.57
2019-03-23T23:28:15.494Z,13.97
2019-03-23T23:30:45.921Z,13.70
2019-03-23T23:33:15.583Z,12.80
2019-03-23T23:35:45.168Z,12.83
2019-03-23T23:38:14.835Z,13.17
2019-03-23T23:40:44.433Z,12.17
2019-03-23T23:43:14.157Z,11.93
2019-03-23T23:45:43.819Z,11.67
2019-03-23T23:48:13.486Z,10.83
2019-03-23T23:50:43.206Z,10.87
2019-03-23T23:53:12.881Z,10.57
2019-03-23T23:55:43.339Z,10.20
2019-03-23T23:58:12.979Z,10.20
